CheckWX is a tool to help pilots better visualize weather data.  It is not intended as a substitute for an official pre-flight weather briefing.

15:06:16 UTC

KY8 METAR
Hancock Co-Ron Lewis Field Airport
Lewisport, Kentucky, USA
Current

11 mins ago

KKY8 171455Z AUTO VRB05G11KT 7SM CLR 29/29 A3001 RMK A01
Observed
Aug-17 @ 14:55 UTC
Wind
  • Variable at 5 KTS
  • Gusting to 11 KTS
Visibility
7 SM
Flight Rules
VFR
Cloud Levels
  • Clear skies
Temperature
29°C / 84°F
Dewpoint
29°C / 84°F
Heat Index
39°C / 103°F
Humidity
100%
Altimeter
30.01" Hg
Pressure
1016.22 hPa
Previous

31 mins ago

KKY8 171435Z AUTO VRB05KT 10SM CLR 29/29 A3001 RMK A01
Observed
Aug-17 @ 14:35 UTC
Wind
  • Variable at 5 KTS
Visibility
10 SM
Flight Rules
VFR
Cloud Levels
  • Clear skies
Temperature
29°C / 84°F
Dewpoint
29°C / 84°F
Heat Index
39°C / 103°F
Humidity
100%
Altimeter
30.01" Hg
Pressure
1016.22 hPa
Previous

51 mins ago

KKY8 171415Z AUTO 21005KT 10SM CLR 28/28 A3001 RMK A01
Observed
Aug-17 @ 14:15 UTC
Wind
  • 210° at 5 KTS
Visibility
10 SM
Flight Rules
VFR
Cloud Levels
  • Clear skies
Temperature
28°C / 82°F
Dewpoint
28°C / 82°F
Heat Index
35°C / 95°F
Humidity
100%
Altimeter
30.01" Hg
Pressure
1016.22 hPa